sensor_id;sensor_type;location;lat;lon;timestamp;P1;durP1;ratioP1;P2;durP2;ratioP2
34767;SDS011;21755;43.608;1.236;2023-09-12T00:01:41;3.70;;;2.67;;
34767;SDS011;21755;43.608;1.236;2023-09-12T00:04:08;7.53;;;3.00;;
34767;SDS011;21755;43.608;1.236;2023-09-12T00:06:33;5.13;;;2.42;;
34767;SDS011;21755;43.608;1.236;2023-09-12T00:08:59;8.10;;;2.58;;
34767;SDS011;21755;43.608;1.236;2023-09-12T00:11:25;4.55;;;2.33;;
34767;SDS011;21755;43.608;1.236;2023-09-12T00:13:51;7.70;;;3.15;;
34767;SDS011;21755;43.608;1.236;2023-09-12T00:16:17;5.45;;;2.92;;
34767;SDS011;21755;43.608;1.236;2023-09-12T00:18:43;8.25;;;2.70;;
34767;SDS011;21755;43.608;1.236;2023-09-12T00:21:09;2.55;;;2.20;;
34767;SDS011;21755;43.608;1.236;2023-09-12T00:23:35;6.53;;;2.75;;
34767;SDS011;21755;43.608;1.236;2023-09-12T00:26:01;6.95;;;2.92;;
34767;SDS011;21755;43.608;1.236;2023-09-12T00:28:27;5.65;;;3.00;;
34767;SDS011;21755;43.608;1.236;2023-09-12T00:30:53;6.85;;;2.58;;
34767;SDS011;21755;43.608;1.236;2023-09-12T00:33:19;4.50;;;2.90;;
34767;SDS011;21755;43.608;1.236;2023-09-12T00:35:44;3.58;;;2.53;;
34767;SDS011;21755;43.608;1.236;2023-09-12T00:38:10;5.07;;;2.70;;
34767;SDS011;21755;43.608;1.236;2023-09-12T00:40:36;6.85;;;2.75;;
34767;SDS011;21755;43.608;1.236;2023-09-12T00:43:03;4.88;;;3.00;;
34767;SDS011;21755;43.608;1.236;2023-09-12T00:45:29;5.25;;;2.60;;
34767;SDS011;21755;43.608;1.236;2023-09-12T00:47:55;5.03;;;2.95;;
34767;SDS011;21755;43.608;1.236;2023-09-12T00:50:24;4.65;;;2.47;;
34767;SDS011;21755;43.608;1.236;2023-09-12T00:52:50;5.00;;;2.95;;
34767;SDS011;21755;43.608;1.236;2023-09-12T00:55:18;3.92;;;2.60;;
34767;SDS011;21755;43.608;1.236;2023-09-12T00:57:44;4.75;;;3.20;;
34767;SDS011;21755;43.608;1.236;2023-09-12T01:00:11;4.13;;;2.53;;
34767;SDS011;21755;43.608;1.236;2023-09-12T01:02:39;4.40;;;2.40;;
34767;SDS011;21755;43.608;1.236;2023-09-12T01:05:09;6.03;;;2.60;;
34767;SDS011;21755;43.608;1.236;2023-09-12T01:07:36;5.93;;;2.80;;
34767;SDS011;21755;43.608;1.236;2023-09-12T01:10:03;3.65;;;2.72;;
34767;SDS011;21755;43.608;1.236;2023-09-12T01:12:29;4.65;;;2.13;;
34767;SDS011;21755;43.608;1.236;2023-09-12T01:14:55;6.20;;;2.50;;
34767;SDS011;21755;43.608;1.236;2023-09-12T01:17:22;4.75;;;2.42;;
34767;SDS011;21755;43.608;1.236;2023-09-12T01:19:48;3.85;;;2.20;;
34767;SDS011;21755;43.608;1.236;2023-09-12T01:22:16;9.15;;;3.15;;
34767;SDS011;21755;43.608;1.236;2023-09-12T01:28:00;4.75;;;2.55;;
34767;SDS011;21755;43.608;1.236;2023-09-12T01:30:31;7.47;;;3.28;;
34767;SDS011;21755;43.608;1.236;2023-09-12T01:32:58;4.82;;;3.33;;
34767;SDS011;21755;43.608;1.236;2023-09-12T01:35:24;5.70;;;3.33;;
34767;SDS011;21755;43.608;1.236;2023-09-12T01:37:50;7.65;;;3.65;;
34767;SDS011;21755;43.608;1.236;2023-09-12T01:40:16;6.20;;;3.50;;
34767;SDS011;21755;43.608;1.236;2023-09-12T01:42:45;7.88;;;3.45;;
34767;SDS011;21755;43.608;1.236;2023-09-12T01:45:14;5.95;;;3.33;;
34767;SDS011;21755;43.608;1.236;2023-09-12T01:47:42;8.02;;;4.10;;
34767;SDS011;21755;43.608;1.236;2023-09-12T01:50:10;4.85;;;3.40;;
34767;SDS011;21755;43.608;1.236;2023-09-12T01:52:38;4.93;;;3.53;;
34767;SDS011;21755;43.608;1.236;2023-09-12T01:55:06;6.97;;;4.30;;
34767;SDS011;21755;43.608;1.236;2023-09-12T02:03:56;6.03;;;4.20;;
34767;SDS011;21755;43.608;1.236;2023-09-12T02:06:22;8.73;;;4.47;;
34767;SDS011;21755;43.608;1.236;2023-09-12T02:08:48;6.53;;;4.10;;
34767;SDS011;21755;43.608;1.236;2023-09-12T02:11:14;4.35;;;3.92;;
34767;SDS011;21755;43.608;1.236;2023-09-12T02:13:40;8.50;;;4.20;;
34767;SDS011;21755;43.608;1.236;2023-09-12T02:16:06;4.40;;;3.78;;
34767;SDS011;21755;43.608;1.236;2023-09-12T02:18:31;9.13;;;4.13;;
34767;SDS011;21755;43.608;1.236;2023-09-12T02:21:00;6.75;;;4.22;;
34767;SDS011;21755;43.608;1.236;2023-09-12T02:23:26;5.90;;;3.60;;
34767;SDS011;21755;43.608;1.236;2023-09-12T02:25:52;6.65;;;3.78;;
34767;SDS011;21755;43.608;1.236;2023-09-12T02:28:17;5.43;;;4.07;;
34767;SDS011;21755;43.608;1.236;2023-09-12T02:30:43;11.73;;;4.07;;
34767;SDS011;21755;43.608;1.236;2023-09-12T02:33:09;12.10;;;4.82;;
34767;SDS011;21755;43.608;1.236;2023-09-12T02:35:35;7.43;;;4.32;;
34767;SDS011;21755;43.608;1.236;2023-09-12T02:38:00;5.55;;;3.80;;
34767;SDS011;21755;43.608;1.236;2023-09-12T02:40:26;7.70;;;3.85;;
34767;SDS011;21755;43.608;1.236;2023-09-12T02:42:52;7.95;;;4.07;;
34767;SDS011;21755;43.608;1.236;2023-09-12T02:45:18;9.52;;;4.55;;
34767;SDS011;21755;43.608;1.236;2023-09-12T02:47:43;7.15;;;4.55;;
34767;SDS011;21755;43.608;1.236;2023-09-12T02:50:11;7.28;;;4.10;;
34767;SDS011;21755;43.608;1.236;2023-09-12T02:52:37;9.05;;;4.97;;
34767;SDS011;21755;43.608;1.236;2023-09-12T02:55:03;11.13;;;4.72;;
34767;SDS011;21755;43.608;1.236;2023-09-12T02:57:29;7.85;;;5.30;;
34767;SDS011;21755;43.608;1.236;2023-09-12T02:59:55;6.90;;;4.78;;
34767;SDS011;21755;43.608;1.236;2023-09-12T03:02:20;5.32;;;4.10;;
34767;SDS011;21755;43.608;1.236;2023-09-12T03:04:46;9.40;;;5.18;;
34767;SDS011;21755;43.608;1.236;2023-09-12T03:07:12;8.98;;;4.55;;
34767;SDS011;21755;43.608;1.236;2023-09-12T03:09:38;4.95;;;4.32;;
34767;SDS011;21755;43.608;1.236;2023-09-12T03:12:06;6.88;;;4.50;;
34767;SDS011;21755;43.608;1.236;2023-09-12T03:14:32;6.70;;;4.30;;
34767;SDS011;21755;43.608;1.236;2023-09-12T03:16:58;7.38;;;4.85;;
34767;SDS011;21755;43.608;1.236;2023-09-12T03:19:24;6.57;;;4.95;;
34767;SDS011;21755;43.608;1.236;2023-09-12T03:21:49;7.13;;;4.70;;
34767;SDS011;21755;43.608;1.236;2023-09-12T03:24:15;5.95;;;4.35;;
34767;SDS011;21755;43.608;1.236;2023-09-12T03:26:43;8.95;;;4.72;;
34767;SDS011;21755;43.608;1.236;2023-09-12T03:29:09;7.60;;;4.80;;
34767;SDS011;21755;43.608;1.236;2023-09-12T03:31:35;8.82;;;4.78;;
34767;SDS011;21755;43.608;1.236;2023-09-12T03:34:00;5.55;;;4.28;;
34767;SDS011;21755;43.608;1.236;2023-09-12T03:36:26;6.07;;;4.35;;
34767;SDS011;21755;43.608;1.236;2023-09-12T03:38:52;6.85;;;4.82;;
34767;SDS011;21755;43.608;1.236;2023-09-12T03:41:18;7.85;;;4.45;;
34767;SDS011;21755;43.608;1.236;2023-09-12T03:43:44;8.88;;;4.82;;
34767;SDS011;21755;43.608;1.236;2023-09-12T03:46:10;7.70;;;4.65;;
34767;SDS011;21755;43.608;1.236;2023-09-12T03:48:36;7.15;;;4.72;;
34767;SDS011;21755;43.608;1.236;2023-09-12T03:51:02;12.65;;;5.20;;
34767;SDS011;21755;43.608;1.236;2023-09-12T03:53:29;9.45;;;5.32;;
34767;SDS011;21755;43.608;1.236;2023-09-12T03:55:55;9.40;;;4.97;;
34767;SDS011;21755;43.608;1.236;2023-09-12T03:58:21;6.22;;;4.80;;
34767;SDS011;21755;43.608;1.236;2023-09-12T04:00:47;6.80;;;4.47;;
34767;SDS011;21755;43.608;1.236;2023-09-12T04:03:12;8.20;;;4.97;;
34767;SDS011;21755;43.608;1.236;2023-09-12T04:05:41;6.88;;;5.00;;
34767;SDS011;21755;43.608;1.236;2023-09-12T04:08:07;7.93;;;5.30;;
34767;SDS011;21755;43.608;1.236;2023-09-12T04:10:32;8.23;;;4.30;;
34767;SDS011;21755;43.608;1.236;2023-09-12T04:12:58;7.43;;;4.85;;
34767;SDS011;21755;43.608;1.236;2023-09-12T04:15:24;9.10;;;4.72;;
34767;SDS011;21755;43.608;1.236;2023-09-12T04:17:50;9.75;;;5.20;;
34767;SDS011;21755;43.608;1.236;2023-09-12T04:20:15;6.38;;;5.13;;
34767;SDS011;21755;43.608;1.236;2023-09-12T04:22:42;10.95;;;5.30;;
34767;SDS011;21755;43.608;1.236;2023-09-12T04:25:08;11.68;;;5.13;;
34767;SDS011;21755;43.608;1.236;2023-09-12T04:27:33;11.68;;;5.63;;
34767;SDS011;21755;43.608;1.236;2023-09-12T04:29:59;7.45;;;5.30;;
34767;SDS011;21755;43.608;1.236;2023-09-12T04:32:25;8.63;;;5.22;;
34767;SDS011;21755;43.608;1.236;2023-09-12T04:34:51;7.90;;;4.90;;
34767;SDS011;21755;43.608;1.236;2023-09-12T04:37:17;5.97;;;4.78;;
34767;SDS011;21755;43.608;1.236;2023-09-12T04:39:43;7.80;;;4.95;;
34767;SDS011;21755;43.608;1.236;2023-09-12T04:42:09;7.15;;;4.80;;
34767;SDS011;21755;43.608;1.236;2023-09-12T04:44:39;9.43;;;4.63;;
34767;SDS011;21755;43.608;1.236;2023-09-12T04:47:05;6.57;;;4.90;;
34767;SDS011;21755;43.608;1.236;2023-09-12T04:49:31;7.93;;;4.90;;
34767;SDS011;21755;43.608;1.236;2023-09-12T04:51:57;6.28;;;4.70;;
34767;SDS011;21755;43.608;1.236;2023-09-12T04:54:23;6.15;;;4.70;;
34767;SDS011;21755;43.608;1.236;2023-09-12T04:56:49;11.23;;;5.13;;
34767;SDS011;21755;43.608;1.236;2023-09-12T04:59:15;5.90;;;4.15;;
34767;SDS011;21755;43.608;1.236;2023-09-12T05:01:40;10.30;;;5.53;;
34767;SDS011;21755;43.608;1.236;2023-09-12T05:04:06;7.88;;;4.72;;
34767;SDS011;21755;43.608;1.236;2023-09-12T05:06:32;8.07;;;4.50;;
34767;SDS011;21755;43.608;1.236;2023-09-12T05:08:58;10.55;;;5.40;;
34767;SDS011;21755;43.608;1.236;2023-09-12T05:11:23;8.52;;;5.25;;
34767;SDS011;21755;43.608;1.236;2023-09-12T05:13:50;8.68;;;5.03;;
34767;SDS011;21755;43.608;1.236;2023-09-12T05:16:16;6.82;;;4.95;;
34767;SDS011;21755;43.608;1.236;2023-09-12T05:18:42;8.85;;;4.53;;
34767;SDS011;21755;43.608;1.236;2023-09-12T05:21:08;8.98;;;4.63;;
34767;SDS011;21755;43.608;1.236;2023-09-12T05:23:33;7.75;;;5.18;;
34767;SDS011;21755;43.608;1.236;2023-09-12T05:25:59;8.10;;;4.55;;
34767;SDS011;21755;43.608;1.236;2023-09-12T05:28:25;9.65;;;5.32;;
34767;SDS011;21755;43.608;1.236;2023-09-12T05:30:52;9.93;;;4.90;;
34767;SDS011;21755;43.608;1.236;2023-09-12T05:33:18;11.73;;;5.40;;
34767;SDS011;21755;43.608;1.236;2023-09-12T05:35:44;8.27;;;5.90;;
34767;SDS011;21755;43.608;1.236;2023-09-12T05:38:10;9.48;;;5.25;;
34767;SDS011;21755;43.608;1.236;2023-09-12T05:40:36;10.25;;;5.20;;
34767;SDS011;21755;43.608;1.236;2023-09-12T05:43:02;5.53;;;4.32;;
34767;SDS011;21755;43.608;1.236;2023-09-12T05:45:28;9.73;;;5.20;;
34767;SDS011;21755;43.608;1.236;2023-09-12T05:47:58;8.50;;;4.80;;
34767;SDS011;21755;43.608;1.236;2023-09-12T05:50:24;10.43;;;4.65;;
34767;SDS011;21755;43.608;1.236;2023-09-12T05:52:50;7.32;;;4.47;;
34767;SDS011;21755;43.608;1.236;2023-09-12T05:55:16;8.90;;;4.90;;
34767;SDS011;21755;43.608;1.236;2023-09-12T05:57:42;11.38;;;5.18;;
34767;SDS011;21755;43.608;1.236;2023-09-12T06:00:09;10.82;;;5.43;;
34767;SDS011;21755;43.608;1.236;2023-09-12T06:02:39;11.30;;;5.00;;
34767;SDS011;21755;43.608;1.236;2023-09-12T06:05:07;8.77;;;5.30;;
34767;SDS011;21755;43.608;1.236;2023-09-12T06:07:33;8.07;;;5.40;;
34767;SDS011;21755;43.608;1.236;2023-09-12T06:10:00;6.78;;;5.18;;
34767;SDS011;21755;43.608;1.236;2023-09-12T06:12:26;9.00;;;5.25;;
34767;SDS011;21755;43.608;1.236;2023-09-12T06:14:52;6.38;;;4.75;;
34767;SDS011;21755;43.608;1.236;2023-09-12T06:17:20;6.68;;;4.55;;
34767;SDS011;21755;43.608;1.236;2023-09-12T06:19:47;7.53;;;4.65;;
34767;SDS011;21755;43.608;1.236;2023-09-12T06:22:14;10.05;;;4.80;;
34767;SDS011;21755;43.608;1.236;2023-09-12T06:24:42;11.70;;;4.90;;
34767;SDS011;21755;43.608;1.236;2023-09-12T06:27:08;10.27;;;4.50;;
34767;SDS011;21755;43.608;1.236;2023-09-12T06:29:35;6.00;;;4.20;;
34767;SDS011;21755;43.608;1.236;2023-09-12T06:32:01;5.90;;;4.18;;
34767;SDS011;21755;43.608;1.236;2023-09-12T06:34:27;6.07;;;4.00;;
34767;SDS011;21755;43.608;1.236;2023-09-12T06:36:53;6.55;;;3.63;;
34767;SDS011;21755;43.608;1.236;2023-09-12T06:39:18;11.82;;;4.30;;
34767;SDS011;21755;43.608;1.236;2023-09-12T06:41:44;5.78;;;4.45;;
34767;SDS011;21755;43.608;1.236;2023-09-12T06:44:10;6.28;;;4.30;;
34767;SDS011;21755;43.608;1.236;2023-09-12T06:46:36;11.35;;;4.97;;
34767;SDS011;21755;43.608;1.236;2023-09-12T06:49:02;8.05;;;4.82;;
34767;SDS011;21755;43.608;1.236;2023-09-12T06:51:28;6.32;;;5.13;;
34767;SDS011;21755;43.608;1.236;2023-09-12T06:53:55;8.65;;;5.38;;
34767;SDS011;21755;43.608;1.236;2023-09-12T06:56:21;7.82;;;5.13;;
34767;SDS011;21755;43.608;1.236;2023-09-12T06:58:47;8.07;;;5.45;;
34767;SDS011;21755;43.608;1.236;2023-09-12T07:01:13;7.10;;;5.05;;
34767;SDS011;21755;43.608;1.236;2023-09-12T07:03:39;10.35;;;4.80;;
34767;SDS011;21755;43.608;1.236;2023-09-12T07:06:05;8.93;;;4.57;;
34767;SDS011;21755;43.608;1.236;2023-09-12T07:08:31;7.57;;;4.55;;
34767;SDS011;21755;43.608;1.236;2023-09-12T07:10:57;7.53;;;4.45;;
34767;SDS011;21755;43.608;1.236;2023-09-12T07:13:26;7.65;;;4.45;;
34767;SDS011;21755;43.608;1.236;2023-09-12T07:15:52;5.47;;;3.85;;
34767;SDS011;21755;43.608;1.236;2023-09-12T07:18:18;5.47;;;3.70;;
34767;SDS011;21755;43.608;1.236;2023-09-12T07:20:45;4.60;;;3.65;;
34767;SDS011;21755;43.608;1.236;2023-09-12T07:23:11;6.60;;;4.20;;
34767;SDS011;21755;43.608;1.236;2023-09-12T07:25:38;7.97;;;4.35;;
34767;SDS011;21755;43.608;1.236;2023-09-12T07:28:07;5.20;;;3.83;;
34767;SDS011;21755;43.608;1.236;2023-09-12T07:30:33;5.93;;;3.80;;
34767;SDS011;21755;43.608;1.236;2023-09-12T07:32:59;7.78;;;3.63;;
34767;SDS011;21755;43.608;1.236;2023-09-12T07:35:25;6.07;;;3.35;;
34767;SDS011;21755;43.608;1.236;2023-09-12T07:37:51;4.97;;;3.75;;
34767;SDS011;21755;43.608;1.236;2023-09-12T07:40:17;12.25;;;3.88;;
34767;SDS011;21755;43.608;1.236;2023-09-12T07:42:43;4.30;;;3.58;;
34767;SDS011;21755;43.608;1.236;2023-09-12T07:45:08;5.28;;;3.42;;
34767;SDS011;21755;43.608;1.236;2023-09-12T07:47:35;6.30;;;3.22;;
34767;SDS011;21755;43.608;1.236;2023-09-12T07:50:00;4.65;;;3.50;;
34767;SDS011;21755;43.608;1.236;2023-09-12T07:52:26;5.03;;;3.30;;
34767;SDS011;21755;43.608;1.236;2023-09-12T07:54:58;5.68;;;3.42;;
34767;SDS011;21755;43.608;1.236;2023-09-12T07:57:25;5.00;;;3.75;;
34767;SDS011;21755;43.608;1.236;2023-09-12T07:59:50;4.50;;;3.25;;
34767;SDS011;21755;43.608;1.236;2023-09-12T08:02:16;7.30;;;3.38;;
34767;SDS011;21755;43.608;1.236;2023-09-12T08:04:42;5.40;;;3.00;;
34767;SDS011;21755;43.608;1.236;2023-09-12T08:07:08;6.03;;;3.53;;
34767;SDS011;21755;43.608;1.236;2023-09-12T08:09:49;5.78;;;3.20;;
34767;SDS011;21755;43.608;1.236;2023-09-12T08:12:16;11.27;;;4.57;;
34767;SDS011;21755;43.608;1.236;2023-09-12T08:14:43;4.75;;;3.28;;
34767;SDS011;21755;43.608;1.236;2023-09-12T08:17:10;5.78;;;4.15;;
34767;SDS011;21755;43.608;1.236;2023-09-12T08:19:36;7.28;;;3.88;;
34767;SDS011;21755;43.608;1.236;2023-09-12T08:22:02;10.48;;;4.22;;
34767;SDS011;21755;43.608;1.236;2023-09-12T08:24:28;8.18;;;4.80;;
34767;SDS011;21755;43.608;1.236;2023-09-12T08:26:53;6.13;;;4.63;;
34767;SDS011;21755;43.608;1.236;2023-09-12T08:29:20;5.28;;;4.07;;
34767;SDS011;21755;43.608;1.236;2023-09-12T08:31:45;7.90;;;4.97;;
34767;SDS011;21755;43.608;1.236;2023-09-12T08:34:12;6.85;;;4.75;;
34767;SDS011;21755;43.608;1.236;2023-09-12T08:36:38;6.38;;;4.35;;
34767;SDS011;21755;43.608;1.236;2023-09-12T08:39:04;14.15;;;4.60;;
34767;SDS011;21755;43.608;1.236;2023-09-12T08:41:33;8.73;;;4.25;;
34767;SDS011;21755;43.608;1.236;2023-09-12T08:43:59;5.88;;;4.28;;
34767;SDS011;21755;43.608;1.236;2023-09-12T08:46:26;8.27;;;4.18;;
34767;SDS011;21755;43.608;1.236;2023-09-12T08:48:55;6.90;;;4.07;;
34767;SDS011;21755;43.608;1.236;2023-09-12T08:51:22;6.05;;;3.75;;
34767;SDS011;21755;43.608;1.236;2023-09-12T08:53:51;5.38;;;3.50;;
34767;SDS011;21755;43.608;1.236;2023-09-12T08:56:18;6.28;;;4.07;;
34767;SDS011;21755;43.608;1.236;2023-09-12T08:58:44;8.20;;;4.18;;
34767;SDS011;21755;43.608;1.236;2023-09-12T09:01:13;4.90;;;3.53;;
34767;SDS011;21755;43.608;1.236;2023-09-12T09:03:43;8.48;;;4.35;;
34767;SDS011;21755;43.608;1.236;2023-09-12T09:06:10;5.75;;;3.72;;
34767;SDS011;21755;43.608;1.236;2023-09-12T09:08:37;6.22;;;4.35;;
34767;SDS011;21755;43.608;1.236;2023-09-12T09:11:04;5.85;;;4.15;;
34767;SDS011;21755;43.608;1.236;2023-09-12T09:13:33;5.25;;;3.80;;
34767;SDS011;21755;43.608;1.236;2023-09-12T09:18:55;6.00;;;3.90;;
34767;SDS011;21755;43.608;1.236;2023-09-12T09:21:25;5.00;;;3.60;;
34767;SDS011;21755;43.608;1.236;2023-09-12T09:23:53;5.85;;;4.22;;
34767;SDS011;21755;43.608;1.236;2023-09-12T09:26:21;5.28;;;3.50;;
34767;SDS011;21755;43.608;1.236;2023-09-12T09:29:06;5.72;;;4.40;;
34767;SDS011;21755;43.608;1.236;2023-09-12T09:31:34;7.75;;;4.47;;
34767;SDS011;21755;43.608;1.236;2023-09-12T09:34:00;5.82;;;4.07;;
34767;SDS011;21755;43.608;1.236;2023-09-12T09:36:29;7.97;;;4.40;;
34767;SDS011;21755;43.608;1.236;2023-09-12T09:38:56;6.35;;;4.60;;
34767;SDS011;21755;43.608;1.236;2023-09-12T09:41:24;10.68;;;4.93;;
34767;SDS011;21755;43.608;1.236;2023-09-12T09:43:51;6.47;;;4.10;;
34767;SDS011;21755;43.608;1.236;2023-09-12T09:46:18;6.80;;;4.93;;
34767;SDS011;21755;43.608;1.236;2023-09-12T09:48:50;7.63;;;4.90;;
34767;SDS011;21755;43.608;1.236;2023-09-12T09:51:16;8.18;;;4.63;;
34767;SDS011;21755;43.608;1.236;2023-09-12T09:53:43;5.72;;;4.60;;
34767;SDS011;21755;43.608;1.236;2023-09-12T09:56:09;6.55;;;5.38;;
34767;SDS011;21755;43.608;1.236;2023-09-12T09:58:41;7.18;;;4.68;;
34767;SDS011;21755;43.608;1.236;2023-09-12T10:01:18;6.50;;;4.70;;
34767;SDS011;21755;43.608;1.236;2023-09-12T10:03:46;11.52;;;4.85;;
34767;SDS011;21755;43.608;1.236;2023-09-12T10:06:16;10.38;;;4.75;;
34767;SDS011;21755;43.608;1.236;2023-09-12T10:08:46;11.02;;;5.10;;
34767;SDS011;21755;43.608;1.236;2023-09-12T10:11:16;14.07;;;5.05;;
34767;SDS011;21755;43.608;1.236;2023-09-12T10:13:50;6.18;;;4.90;;
34767;SDS011;21755;43.608;1.236;2023-09-12T10:16:20;7.40;;;3.90;;
34767;SDS011;21755;43.608;1.236;2023-09-12T10:18:59;8.52;;;4.82;;
34767;SDS011;21755;43.608;1.236;2023-09-12T10:22:21;7.68;;;4.70;;
34767;SDS011;21755;43.608;1.236;2023-09-12T10:24:28;7.70;;;4.32;;
34767;SDS011;21755;43.608;1.236;2023-09-12T10:26:55;9.38;;;4.82;;
34767;SDS011;21755;43.608;1.236;2023-09-12T10:29:22;8.15;;;4.90;;
34767;SDS011;21755;43.608;1.236;2023-09-12T10:31:48;8.10;;;4.45;;
34767;SDS011;21755;43.608;1.236;2023-09-12T10:34:15;6.00;;;4.75;;
34767;SDS011;21755;43.608;1.236;2023-09-12T10:36:42;8.05;;;4.72;;
34767;SDS011;21755;43.608;1.236;2023-09-12T10:39:09;4.80;;;3.80;;
34767;SDS011;21755;43.608;1.236;2023-09-12T10:41:37;7.90;;;4.82;;
34767;SDS011;21755;43.608;1.236;2023-09-12T10:44:25;9.30;;;4.15;;
34767;SDS011;21755;43.608;1.236;2023-09-12T10:46:51;7.35;;;4.20;;
34767;SDS011;21755;43.608;1.236;2023-09-12T10:49:20;5.05;;;4.20;;
34767;SDS011;21755;43.608;1.236;2023-09-12T10:51:47;5.70;;;4.25;;
34767;SDS011;21755;43.608;1.236;2023-09-12T10:54:22;9.40;;;4.30;;
34767;SDS011;21755;43.608;1.236;2023-09-12T10:57:04;5.65;;;4.07;;
34767;SDS011;21755;43.608;1.236;2023-09-12T10:59:36;8.80;;;3.90;;
34767;SDS011;21755;43.608;1.236;2023-09-12T11:02:29;8.23;;;4.25;;
34767;SDS011;21755;43.608;1.236;2023-09-12T11:04:56;10.68;;;4.70;;
34767;SDS011;21755;43.608;1.236;2023-09-12T11:07:32;3.85;;;3.53;;
34767;SDS011;21755;43.608;1.236;2023-09-12T11:12:46;5.13;;;4.20;;
34767;SDS011;21755;43.608;1.236;2023-09-12T11:15:16;8.05;;;4.35;;
34767;SDS011;21755;43.608;1.236;2023-09-12T11:17:44;5.65;;;4.40;;
34767;SDS011;21755;43.608;1.236;2023-09-12T11:20:11;7.55;;;4.38;;
34767;SDS011;21755;43.608;1.236;2023-09-12T11:22:40;6.20;;;4.30;;
34767;SDS011;21755;43.608;1.236;2023-09-12T11:25:17;5.88;;;4.40;;
34767;SDS011;21755;43.608;1.236;2023-09-12T11:27:46;5.68;;;4.47;;
34767;SDS011;21755;43.608;1.236;2023-09-12T11:30:31;5.22;;;4.32;;
34767;SDS011;21755;43.608;1.236;2023-09-12T11:32:57;6.57;;;3.92;;
34767;SDS011;21755;43.608;1.236;2023-09-12T11:35:26;5.15;;;3.38;;
34767;SDS011;21755;43.608;1.236;2023-09-12T11:37:54;4.43;;;3.10;;
34767;SDS011;21755;43.608;1.236;2023-09-12T11:40:25;4.20;;;3.35;;
34767;SDS011;21755;43.608;1.236;2023-09-12T11:43:06;5.28;;;3.35;;
34767;SDS011;21755;43.608;1.236;2023-09-12T11:45:33;5.55;;;3.17;;
34767;SDS011;21755;43.608;1.236;2023-09-12T11:48:00;7.72;;;3.67;;
34767;SDS011;21755;43.608;1.236;2023-09-12T11:53:11;5.57;;;3.70;;
34767;SDS011;21755;43.608;1.236;2023-09-12T11:55:43;5.60;;;3.97;;
34767;SDS011;21755;43.608;1.236;2023-09-12T11:58:11;3.45;;;3.13;;
34767;SDS011;21755;43.608;1.236;2023-09-12T12:00:46;5.10;;;2.67;;
34767;SDS011;21755;43.608;1.236;2023-09-12T12:03:14;3.95;;;3.22;;
34767;SDS011;21755;43.608;1.236;2023-09-12T12:05:41;3.30;;;2.83;;
34767;SDS011;21755;43.608;1.236;2023-09-12T12:08:10;4.90;;;3.38;;
34767;SDS011;21755;43.608;1.236;2023-09-12T12:10:36;4.22;;;2.83;;
34767;SDS011;21755;43.608;1.236;2023-09-12T12:13:06;3.10;;;2.75;;
34767;SDS011;21755;43.608;1.236;2023-09-12T12:15:42;5.10;;;2.95;;
34767;SDS011;21755;43.608;1.236;2023-09-12T12:18:07;3.58;;;2.80;;
34767;SDS011;21755;43.608;1.236;2023-09-12T12:20:33;4.78;;;2.83;;
34767;SDS011;21755;43.608;1.236;2023-09-12T12:22:59;3.65;;;2.90;;
34767;SDS011;21755;43.608;1.236;2023-09-12T12:25:25;3.05;;;2.72;;
34767;SDS011;21755;43.608;1.236;2023-09-12T12:27:51;3.30;;;2.88;;
34767;SDS011;21755;43.608;1.236;2023-09-12T12:30:17;2.95;;;2.70;;
34767;SDS011;21755;43.608;1.236;2023-09-12T12:32:45;2.85;;;2.65;;
34767;SDS011;21755;43.608;1.236;2023-09-12T12:35:23;5.55;;;3.25;;
34767;SDS011;21755;43.608;1.236;2023-09-12T12:37:49;3.42;;;2.92;;
34767;SDS011;21755;43.608;1.236;2023-09-12T12:40:16;5.78;;;2.50;;
34767;SDS011;21755;43.608;1.236;2023-09-12T12:42:43;9.85;;;3.10;;
34767;SDS011;21755;43.608;1.236;2023-09-12T12:45:12;5.35;;;2.88;;
34767;SDS011;21755;43.608;1.236;2023-09-12T12:47:38;3.65;;;2.70;;
34767;SDS011;21755;43.608;1.236;2023-09-12T12:50:07;2.95;;;2.60;;
34767;SDS011;21755;43.608;1.236;2023-09-12T12:52:35;2.87;;;2.43;;
34767;SDS011;21755;43.608;1.236;2023-09-12T12:55:04;2.83;;;2.38;;
34767;SDS011;21755;43.608;1.236;2023-09-12T12:57:30;3.90;;;2.95;;
34767;SDS011;21755;43.608;1.236;2023-09-12T12:59:56;4.50;;;2.70;;
34767;SDS011;21755;43.608;1.236;2023-09-12T13:02:23;5.93;;;2.97;;
34767;SDS011;21755;43.608;1.236;2023-09-12T13:04:49;3.80;;;2.67;;
34767;SDS011;21755;43.608;1.236;2023-09-12T13:07:15;3.95;;;2.85;;
34767;SDS011;21755;43.608;1.236;2023-09-12T13:09:40;2.60;;;2.40;;
34767;SDS011;21755;43.608;1.236;2023-09-12T13:12:07;3.75;;;2.92;;
34767;SDS011;21755;43.608;1.236;2023-09-12T13:14:33;15.82;;;3.42;;
34767;SDS011;21755;43.608;1.236;2023-09-12T13:16:59;22.30;;;5.47;;
34767;SDS011;21755;43.608;1.236;2023-09-12T13:19:25;11.25;;;3.20;;
34767;SDS011;21755;43.608;1.236;2023-09-12T13:21:51;5.88;;;3.38;;
34767;SDS011;21755;43.608;1.236;2023-09-12T13:24:17;9.27;;;3.25;;
34767;SDS011;21755;43.608;1.236;2023-09-12T13:26:46;3.15;;;2.50;;
34767;SDS011;21755;43.608;1.236;2023-09-12T13:29:12;2.72;;;2.53;;
34767;SDS011;21755;43.608;1.236;2023-09-12T13:31:38;3.22;;;2.22;;
34767;SDS011;21755;43.608;1.236;2023-09-12T13:34:04;3.55;;;2.45;;
34767;SDS011;21755;43.608;1.236;2023-09-12T13:36:30;3.53;;;2.78;;
34767;SDS011;21755;43.608;1.236;2023-09-12T13:38:55;6.32;;;2.72;;
34767;SDS011;21755;43.608;1.236;2023-09-12T13:41:21;4.05;;;3.20;;
34767;SDS011;21755;43.608;1.236;2023-09-12T13:43:48;3.10;;;2.60;;
34767;SDS011;21755;43.608;1.236;2023-09-12T13:46:14;6.70;;;3.20;;
34767;SDS011;21755;43.608;1.236;2023-09-12T13:48:41;4.03;;;2.95;;
34767;SDS011;21755;43.608;1.236;2023-09-12T13:51:07;6.13;;;3.28;;
34767;SDS011;21755;43.608;1.236;2023-09-12T13:53:33;6.32;;;3.60;;
34767;SDS011;21755;43.608;1.236;2023-09-12T13:55:58;3.70;;;3.13;;
34767;SDS011;21755;43.608;1.236;2023-09-12T13:58:26;6.05;;;3.22;;
34767;SDS011;21755;43.608;1.236;2023-09-12T14:00:52;3.63;;;2.85;;
34767;SDS011;21755;43.608;1.236;2023-09-12T14:03:17;3.35;;;2.70;;
34767;SDS011;21755;43.608;1.236;2023-09-12T14:05:43;4.50;;;3.15;;
34767;SDS011;21755;43.608;1.236;2023-09-12T14:08:09;2.88;;;2.60;;
34767;SDS011;21755;43.608;1.236;2023-09-12T14:10:35;6.43;;;3.35;;
34767;SDS011;21755;43.608;1.236;2023-09-12T14:13:01;4.00;;;2.72;;
34767;SDS011;21755;43.608;1.236;2023-09-12T14:15:26;2.97;;;2.30;;
34767;SDS011;21755;43.608;1.236;2023-09-12T14:17:52;2.65;;;2.30;;
34767;SDS011;21755;43.608;1.236;2023-09-12T14:20:18;2.50;;;2.15;;
34767;SDS011;21755;43.608;1.236;2023-09-12T14:22:44;2.92;;;2.28;;
34767;SDS011;21755;43.608;1.236;2023-09-12T14:25:10;5.18;;;2.20;;
34767;SDS011;21755;43.608;1.236;2023-09-12T14:27:42;2.70;;;2.28;;
34767;SDS011;21755;43.608;1.236;2023-09-12T14:30:09;4.85;;;1.92;;
34767;SDS011;21755;43.608;1.236;2023-09-12T14:32:38;4.25;;;2.30;;
34767;SDS011;21755;43.608;1.236;2023-09-12T14:35:04;4.68;;;2.20;;
34767;SDS011;21755;43.608;1.236;2023-09-12T14:37:31;3.28;;;2.70;;
34767;SDS011;21755;43.608;1.236;2023-09-12T14:39:57;3.30;;;2.17;;
34767;SDS011;21755;43.608;1.236;2023-09-12T14:42:22;3.25;;;2.38;;
34767;SDS011;21755;43.608;1.236;2023-09-12T14:44:48;2.50;;;2.30;;
34767;SDS011;21755;43.608;1.236;2023-09-12T14:47:14;3.95;;;2.58;;
34767;SDS011;21755;43.608;1.236;2023-09-12T14:49:40;3.40;;;2.58;;
34767;SDS011;21755;43.608;1.236;2023-09-12T14:52:06;5.15;;;2.90;;
34767;SDS011;21755;43.608;1.236;2023-09-12T14:54:32;4.88;;;2.58;;
34767;SDS011;21755;43.608;1.236;2023-09-12T14:59:27;3.38;;;2.80;;
34767;SDS011;21755;43.608;1.236;2023-09-12T15:01:52;4.38;;;2.70;;
34767;SDS011;21755;43.608;1.236;2023-09-12T15:04:18;3.58;;;2.47;;
34767;SDS011;21755;43.608;1.236;2023-09-12T15:06:44;3.42;;;2.65;;